sensor_id;sensor_type;location;lat;lon;timestamp;P1;durP1;ratioP1;P2;durP2;ratioP2
53273;SDS011;39163;52.696;6.758;2024-02-28T00:01:15;378.90;;;41.38;;
53273;SDS011;39163;52.696;6.758;2024-02-28T00:03:42;131.77;;;31.83;;
53273;SDS011;39163;52.696;6.758;2024-02-28T00:06:09;242.45;;;38.25;;
53273;SDS011;39163;52.696;6.758;2024-02-28T00:08:36;259.05;;;38.55;;
53273;SDS011;39163;52.696;6.758;2024-02-28T00:11:03;153.32;;;33.20;;
53273;SDS011;39163;52.696;6.758;2024-02-28T00:13:31;200.70;;;32.35;;
53273;SDS011;39163;52.696;6.758;2024-02-28T00:15:58;183.35;;;31.40;;
53273;SDS011;39163;52.696;6.758;2024-02-28T00:18:25;201.60;;;30.65;;
53273;SDS011;39163;52.696;6.758;2024-02-28T00:20:52;286.38;;;34.45;;
53273;SDS011;39163;52.696;6.758;2024-02-28T00:23:19;290.75;;;35.42;;
53273;SDS011;39163;52.696;6.758;2024-02-28T00:25:46;389.08;;;39.42;;
53273;SDS011;39163;52.696;6.758;2024-02-28T00:28:13;288.92;;;37.65;;
53273;SDS011;39163;52.696;6.758;2024-02-28T00:30:41;163.63;;;31.83;;
53273;SDS011;39163;52.696;6.758;2024-02-28T00:33:08;290.70;;;39.13;;
53273;SDS011;39163;52.696;6.758;2024-02-28T00:35:35;341.70;;;41.72;;
53273;SDS011;39163;52.696;6.758;2024-02-28T00:38:02;371.77;;;43.63;;
53273;SDS011;39163;52.696;6.758;2024-02-28T00:40:29;220.20;;;34.45;;
53273;SDS011;39163;52.696;6.758;2024-02-28T00:42:56;150.13;;;30.85;;
53273;SDS011;39163;52.696;6.758;2024-02-28T00:45:23;174.43;;;34.97;;
53273;SDS011;39163;52.696;6.758;2024-02-28T00:47:52;345.85;;;40.40;;
53273;SDS011;39163;52.696;6.758;2024-02-28T00:50:20;331.73;;;36.55;;
53273;SDS011;39163;52.696;6.758;2024-02-28T00:52:46;361.90;;;39.80;;
53273;SDS011;39163;52.696;6.758;2024-02-28T00:55:13;224.02;;;35.55;;
53273;SDS011;39163;52.696;6.758;2024-02-28T00:57:40;240.85;;;35.92;;
53273;SDS011;39163;52.696;6.758;2024-02-28T01:00:08;144.50;;;31.85;;
53273;SDS011;39163;52.696;6.758;2024-02-28T01:02:36;334.85;;;41.67;;
53273;SDS011;39163;52.696;6.758;2024-02-28T01:05:04;201.27;;;34.60;;
53273;SDS011;39163;52.696;6.758;2024-02-28T01:07:32;259.17;;;35.78;;
53273;SDS011;39163;52.696;6.758;2024-02-28T01:09:58;228.02;;;33.50;;
53273;SDS011;39163;52.696;6.758;2024-02-28T01:12:25;207.23;;;34.72;;
53273;SDS011;39163;52.696;6.758;2024-02-28T01:14:53;146.45;;;31.75;;
53273;SDS011;39163;52.696;6.758;2024-02-28T01:17:20;192.18;;;35.40;;
53273;SDS011;39163;52.696;6.758;2024-02-28T01:19:47;235.48;;;35.50;;
53273;SDS011;39163;52.696;6.758;2024-02-28T01:22:15;311.83;;;40.97;;
53273;SDS011;39163;52.696;6.758;2024-02-28T01:24:42;173.93;;;34.88;;
53273;SDS011;39163;52.696;6.758;2024-02-28T01:27:09;184.25;;;34.70;;
53273;SDS011;39163;52.696;6.758;2024-02-28T01:29:36;228.27;;;37.38;;
53273;SDS011;39163;52.696;6.758;2024-02-28T01:32:03;214.05;;;37.83;;
53273;SDS011;39163;52.696;6.758;2024-02-28T01:34:30;214.77;;;36.60;;
53273;SDS011;39163;52.696;6.758;2024-02-28T01:36:58;166.90;;;32.55;;
53273;SDS011;39163;52.696;6.758;2024-02-28T01:39:26;220.38;;;35.78;;
53273;SDS011;39163;52.696;6.758;2024-02-28T01:41:53;225.75;;;33.38;;
53273;SDS011;39163;52.696;6.758;2024-02-28T01:44:21;259.30;;;37.83;;
53273;SDS011;39163;52.696;6.758;2024-02-28T01:46:48;300.17;;;38.65;;
53273;SDS011;39163;52.696;6.758;2024-02-28T01:49:16;296.75;;;37.38;;
53273;SDS011;39163;52.696;6.758;2024-02-28T01:51:44;251.20;;;34.83;;
53273;SDS011;39163;52.696;6.758;2024-02-28T01:54:13;244.60;;;36.80;;
53273;SDS011;39163;52.696;6.758;2024-02-28T01:56:41;210.60;;;33.35;;
53273;SDS011;39163;52.696;6.758;2024-02-28T01:59:10;310.88;;;39.35;;
53273;SDS011;39163;52.696;6.758;2024-02-28T02:01:37;327.23;;;42.53;;
53273;SDS011;39163;52.696;6.758;2024-02-28T02:04:04;207.68;;;34.10;;
53273;SDS011;39163;52.696;6.758;2024-02-28T02:06:32;233.27;;;37.13;;
53273;SDS011;39163;52.696;6.758;2024-02-28T02:08:59;180.40;;;37.08;;
53273;SDS011;39163;52.696;6.758;2024-02-28T02:11:28;277.25;;;41.97;;
53273;SDS011;39163;52.696;6.758;2024-02-28T02:13:56;121.13;;;31.17;;
53273;SDS011;39163;52.696;6.758;2024-02-28T02:16:23;132.38;;;34.40;;
53273;SDS011;39163;52.696;6.758;2024-02-28T02:18:51;213.90;;;37.35;;
53273;SDS011;39163;52.696;6.758;2024-02-28T02:21:19;205.23;;;36.70;;
53273;SDS011;39163;52.696;6.758;2024-02-28T02:23:50;197.40;;;35.80;;
53273;SDS011;39163;52.696;6.758;2024-02-28T02:26:17;160.65;;;35.60;;
53273;SDS011;39163;52.696;6.758;2024-02-28T02:28:44;128.80;;;33.42;;
53273;SDS011;39163;52.696;6.758;2024-02-28T02:31:11;109.82;;;30.98;;
53273;SDS011;39163;52.696;6.758;2024-02-28T02:33:38;141.73;;;32.08;;
53273;SDS011;39163;52.696;6.758;2024-02-28T02:36:06;109.25;;;29.70;;
53273;SDS011;39163;52.696;6.758;2024-02-28T02:38:33;126.47;;;31.63;;
53273;SDS011;39163;52.696;6.758;2024-02-28T02:41:01;141.77;;;31.00;;
53273;SDS011;39163;52.696;6.758;2024-02-28T02:43:28;109.85;;;30.70;;
53273;SDS011;39163;52.696;6.758;2024-02-28T02:45:56;140.40;;;33.15;;
53273;SDS011;39163;52.696;6.758;2024-02-28T02:48:23;88.07;;;31.08;;
53273;SDS011;39163;52.696;6.758;2024-02-28T02:50:49;115.25;;;30.02;;
53273;SDS011;39163;52.696;6.758;2024-02-28T02:53:17;132.27;;;30.77;;
53273;SDS011;39163;52.696;6.758;2024-02-28T02:55:44;136.05;;;32.45;;
53273;SDS011;39163;52.696;6.758;2024-02-28T02:58:12;157.82;;;32.05;;
53273;SDS011;39163;52.696;6.758;2024-02-28T03:00:39;131.98;;;32.97;;
53273;SDS011;39163;52.696;6.758;2024-02-28T03:03:06;128.02;;;31.55;;
53273;SDS011;39163;52.696;6.758;2024-02-28T03:05:33;172.10;;;34.45;;
53273;SDS011;39163;52.696;6.758;2024-02-28T03:08:00;154.93;;;35.53;;
53273;SDS011;39163;52.696;6.758;2024-02-28T03:10:27;137.63;;;32.85;;
53273;SDS011;39163;52.696;6.758;2024-02-28T03:12:55;134.68;;;31.50;;
53273;SDS011;39163;52.696;6.758;2024-02-28T03:15:23;89.07;;;30.98;;
53273;SDS011;39163;52.696;6.758;2024-02-28T03:17:50;122.10;;;31.38;;
53273;SDS011;39163;52.696;6.758;2024-02-28T03:20:17;114.95;;;30.98;;
53273;SDS011;39163;52.696;6.758;2024-02-28T03:22:44;100.93;;;31.90;;
53273;SDS011;39163;52.696;6.758;2024-02-28T03:25:10;135.52;;;33.42;;
53273;SDS011;39163;52.696;6.758;2024-02-28T03:27:37;104.10;;;32.60;;
53273;SDS011;39163;52.696;6.758;2024-02-28T03:30:05;109.57;;;31.58;;
53273;SDS011;39163;52.696;6.758;2024-02-28T03:32:34;110.15;;;29.88;;
53273;SDS011;39163;52.696;6.758;2024-02-28T03:35:01;98.40;;;30.27;;
53273;SDS011;39163;52.696;6.758;2024-02-28T03:37:29;108.18;;;31.15;;
53273;SDS011;39163;52.696;6.758;2024-02-28T03:39:56;119.30;;;31.75;;
53273;SDS011;39163;52.696;6.758;2024-02-28T03:42:23;126.80;;;29.98;;
53273;SDS011;39163;52.696;6.758;2024-02-28T03:44:50;94.82;;;27.85;;
53273;SDS011;39163;52.696;6.758;2024-02-28T03:47:17;101.20;;;29.85;;
53273;SDS011;39163;52.696;6.758;2024-02-28T03:49:46;98.78;;;30.75;;
53273;SDS011;39163;52.696;6.758;2024-02-28T03:52:13;109.63;;;30.23;;
53273;SDS011;39163;52.696;6.758;2024-02-28T03:54:41;100.07;;;31.50;;
53273;SDS011;39163;52.696;6.758;2024-02-28T03:57:09;90.97;;;29.25;;
53273;SDS011;39163;52.696;6.758;2024-02-28T03:59:36;101.68;;;31.10;;
53273;SDS011;39163;52.696;6.758;2024-02-28T04:02:03;103.43;;;30.23;;
53273;SDS011;39163;52.696;6.758;2024-02-28T04:04:30;94.60;;;30.73;;
53273;SDS011;39163;52.696;6.758;2024-02-28T04:06:59;92.20;;;30.83;;
53273;SDS011;39163;52.696;6.758;2024-02-28T04:09:26;118.22;;;32.08;;
53273;SDS011;39163;52.696;6.758;2024-02-28T04:11:52;88.93;;;28.77;;
53273;SDS011;39163;52.696;6.758;2024-02-28T04:14:20;99.88;;;30.70;;
53273;SDS011;39163;52.696;6.758;2024-02-28T04:16:47;115.00;;;31.20;;
53273;SDS011;39163;52.696;6.758;2024-02-28T04:19:15;94.20;;;29.02;;
53273;SDS011;39163;52.696;6.758;2024-02-28T04:21:42;92.28;;;29.38;;
53273;SDS011;39163;52.696;6.758;2024-02-28T04:24:10;93.85;;;28.85;;
53273;SDS011;39163;52.696;6.758;2024-02-28T04:26:38;91.75;;;31.27;;
53273;SDS011;39163;52.696;6.758;2024-02-28T04:29:04;107.25;;;31.95;;
53273;SDS011;39163;52.696;6.758;2024-02-28T04:31:37;96.03;;;29.70;;
53273;SDS011;39163;52.696;6.758;2024-02-28T04:34:04;92.45;;;31.35;;
53273;SDS011;39163;52.696;6.758;2024-02-28T04:36:31;98.75;;;31.35;;
53273;SDS011;39163;52.696;6.758;2024-02-28T04:38:58;108.55;;;32.90;;
53273;SDS011;39163;52.696;6.758;2024-02-28T04:41:27;98.88;;;30.23;;
53273;SDS011;39163;52.696;6.758;2024-02-28T04:46:22;98.38;;;32.42;;
53273;SDS011;39163;52.696;6.758;2024-02-28T04:48:49;112.30;;;32.67;;
53273;SDS011;39163;52.696;6.758;2024-02-28T04:51:16;114.45;;;30.95;;
53273;SDS011;39163;52.696;6.758;2024-02-28T04:53:43;104.32;;;31.67;;
53273;SDS011;39163;52.696;6.758;2024-02-28T04:56:10;99.45;;;33.25;;
53273;SDS011;39163;52.696;6.758;2024-02-28T04:58:39;98.22;;;30.95;;
53273;SDS011;39163;52.696;6.758;2024-02-28T05:01:06;88.80;;;29.90;;
53273;SDS011;39163;52.696;6.758;2024-02-28T05:03:33;104.72;;;32.15;;
53273;SDS011;39163;52.696;6.758;2024-02-28T05:06:00;99.43;;;31.95;;
53273;SDS011;39163;52.696;6.758;2024-02-28T05:08:27;99.75;;;32.85;;
53273;SDS011;39163;52.696;6.758;2024-02-28T05:10:54;93.13;;;31.52;;
53273;SDS011;39163;52.696;6.758;2024-02-28T05:13:20;101.97;;;31.30;;
53273;SDS011;39163;52.696;6.758;2024-02-28T05:15:50;93.90;;;32.13;;
53273;SDS011;39163;52.696;6.758;2024-02-28T05:18:17;98.18;;;31.70;;
53273;SDS011;39163;52.696;6.758;2024-02-28T05:20:44;107.10;;;32.22;;
53273;SDS011;39163;52.696;6.758;2024-02-28T05:23:11;91.95;;;30.30;;
53273;SDS011;39163;52.696;6.758;2024-02-28T05:25:38;91.97;;;30.55;;
53273;SDS011;39163;52.696;6.758;2024-02-28T05:28:05;94.50;;;31.27;;
53273;SDS011;39163;52.696;6.758;2024-02-28T05:30:32;94.07;;;31.92;;
53273;SDS011;39163;52.696;6.758;2024-02-28T05:33:01;91.35;;;32.20;;
53273;SDS011;39163;52.696;6.758;2024-02-28T05:35:27;88.47;;;30.30;;
53273;SDS011;39163;52.696;6.758;2024-02-28T05:37:54;102.93;;;32.42;;
53273;SDS011;39163;52.696;6.758;2024-02-28T05:40:21;95.13;;;32.33;;
53273;SDS011;39163;52.696;6.758;2024-02-28T05:42:49;96.40;;;30.83;;
53273;SDS011;39163;52.696;6.758;2024-02-28T05:45:16;87.47;;;30.58;;
53273;SDS011;39163;52.696;6.758;2024-02-28T05:47:44;96.93;;;32.50;;
53273;SDS011;39163;52.696;6.758;2024-02-28T05:50:13;98.05;;;31.20;;
53273;SDS011;39163;52.696;6.758;2024-02-28T05:52:41;88.43;;;30.67;;
53273;SDS011;39163;52.696;6.758;2024-02-28T05:55:08;89.28;;;30.48;;
53273;SDS011;39163;52.696;6.758;2024-02-28T05:57:35;96.55;;;32.85;;
53273;SDS011;39163;52.696;6.758;2024-02-28T06:00:02;90.18;;;31.33;;
53273;SDS011;39163;52.696;6.758;2024-02-28T06:02:35;92.00;;;28.33;;
53273;SDS011;39163;52.696;6.758;2024-02-28T06:05:02;90.85;;;31.77;;
53273;SDS011;39163;52.696;6.758;2024-02-28T06:07:31;92.75;;;30.98;;
53273;SDS011;39163;52.696;6.758;2024-02-28T06:09:58;84.35;;;29.45;;
53273;SDS011;39163;52.696;6.758;2024-02-28T06:12:25;83.13;;;28.95;;
53273;SDS011;39163;52.696;6.758;2024-02-28T06:14:52;90.78;;;32.30;;
53273;SDS011;39163;52.696;6.758;2024-02-28T06:17:20;88.20;;;33.28;;
53273;SDS011;39163;52.696;6.758;2024-02-28T06:19:47;97.75;;;32.67;;
53273;SDS011;39163;52.696;6.758;2024-02-28T06:22:14;86.28;;;32.88;;
53273;SDS011;39163;52.696;6.758;2024-02-28T06:24:44;82.88;;;30.10;;
53273;SDS011;39163;52.696;6.758;2024-02-28T06:27:11;96.13;;;35.38;;
53273;SDS011;39163;52.696;6.758;2024-02-28T06:29:38;94.30;;;36.78;;
53273;SDS011;39163;52.696;6.758;2024-02-28T06:32:06;127.63;;;55.80;;
53273;SDS011;39163;52.696;6.758;2024-02-28T06:34:33;116.20;;;47.50;;
53273;SDS011;39163;52.696;6.758;2024-02-28T06:37:00;151.60;;;65.93;;
53273;SDS011;39163;52.696;6.758;2024-02-28T06:39:27;95.55;;;35.72;;
53273;SDS011;39163;52.696;6.758;2024-02-28T06:41:55;91.90;;;32.28;;
53273;SDS011;39163;52.696;6.758;2024-02-28T06:44:22;88.65;;;30.27;;
53273;SDS011;39163;52.696;6.758;2024-02-28T06:46:49;90.05;;;33.53;;
53273;SDS011;39163;52.696;6.758;2024-02-28T06:49:16;91.80;;;32.17;;
53273;SDS011;39163;52.696;6.758;2024-02-28T06:51:43;88.60;;;32.42;;
53273;SDS011;39163;52.696;6.758;2024-02-28T06:54:10;91.40;;;31.83;;
53273;SDS011;39163;52.696;6.758;2024-02-28T06:56:37;86.93;;;32.30;;
53273;SDS011;39163;52.696;6.758;2024-02-28T06:59:05;89.20;;;33.08;;
53273;SDS011;39163;52.696;6.758;2024-02-28T07:01:33;92.20;;;31.90;;
53273;SDS011;39163;52.696;6.758;2024-02-28T07:03:59;88.28;;;32.08;;
53273;SDS011;39163;52.696;6.758;2024-02-28T07:06:26;80.10;;;30.67;;
53273;SDS011;39163;52.696;6.758;2024-02-28T07:08:53;88.68;;;31.52;;
53273;SDS011;39163;52.696;6.758;2024-02-28T07:11:20;79.63;;;30.48;;
53273;SDS011;39163;52.696;6.758;2024-02-28T07:13:47;71.90;;;29.63;;
53273;SDS011;39163;52.696;6.758;2024-02-28T07:16:15;75.25;;;30.55;;
53273;SDS011;39163;52.696;6.758;2024-02-28T07:18:42;76.30;;;28.77;;
53273;SDS011;39163;52.696;6.758;2024-02-28T07:21:09;67.63;;;28.00;;
53273;SDS011;39163;52.696;6.758;2024-02-28T07:23:38;76.38;;;30.35;;
53273;SDS011;39163;52.696;6.758;2024-02-28T07:26:06;71.75;;;28.58;;
53273;SDS011;39163;52.696;6.758;2024-02-28T07:28:33;72.90;;;28.88;;
53273;SDS011;39163;52.696;6.758;2024-02-28T07:31:00;70.30;;;27.13;;
53273;SDS011;39163;52.696;6.758;2024-02-28T07:33:28;74.57;;;27.42;;
53273;SDS011;39163;52.696;6.758;2024-02-28T07:35:55;74.30;;;28.80;;
53273;SDS011;39163;52.696;6.758;2024-02-28T07:38:26;71.43;;;28.83;;
53273;SDS011;39163;52.696;6.758;2024-02-28T07:40:53;58.60;;;26.92;;
53273;SDS011;39163;52.696;6.758;2024-02-28T07:43:20;73.80;;;31.80;;
53273;SDS011;39163;52.696;6.758;2024-02-28T07:45:47;66.43;;;28.30;;
53273;SDS011;39163;52.696;6.758;2024-02-28T07:48:14;67.25;;;27.38;;
53273;SDS011;39163;52.696;6.758;2024-02-28T07:50:44;64.35;;;26.67;;
53273;SDS011;39163;52.696;6.758;2024-02-28T07:53:11;64.70;;;27.08;;
53273;SDS011;39163;52.696;6.758;2024-02-28T07:55:38;67.80;;;28.05;;
53273;SDS011;39163;52.696;6.758;2024-02-28T07:58:05;66.95;;;26.48;;
53273;SDS011;39163;52.696;6.758;2024-02-28T08:00:32;64.43;;;27.52;;
53273;SDS011;39163;52.696;6.758;2024-02-28T08:02:59;62.38;;;25.83;;
53273;SDS011;39163;52.696;6.758;2024-02-28T08:05:26;58.05;;;26.48;;
53273;SDS011;39163;52.696;6.758;2024-02-28T08:07:55;57.17;;;26.50;;
53273;SDS011;39163;52.696;6.758;2024-02-28T08:10:21;62.35;;;26.65;;
53273;SDS011;39163;52.696;6.758;2024-02-28T08:12:48;54.90;;;26.08;;
53273;SDS011;39163;52.696;6.758;2024-02-28T08:15:15;60.13;;;28.55;;
53273;SDS011;39163;52.696;6.758;2024-02-28T08:17:42;60.97;;;26.17;;
53273;SDS011;39163;52.696;6.758;2024-02-28T08:20:10;58.00;;;25.92;;
53273;SDS011;39163;52.696;6.758;2024-02-28T08:22:37;58.70;;;26.08;;
53273;SDS011;39163;52.696;6.758;2024-02-28T08:25:06;55.85;;;25.92;;
53273;SDS011;39163;52.696;6.758;2024-02-28T08:27:36;55.65;;;26.17;;
53273;SDS011;39163;52.696;6.758;2024-02-28T08:30:04;59.90;;;28.20;;
53273;SDS011;39163;52.696;6.758;2024-02-28T08:32:32;60.33;;;26.95;;
53273;SDS011;39163;52.696;6.758;2024-02-28T08:34:59;53.92;;;25.48;;
53273;SDS011;39163;52.696;6.758;2024-02-28T08:37:26;57.30;;;26.55;;
53273;SDS011;39163;52.696;6.758;2024-02-28T08:39:54;56.58;;;26.50;;
53273;SDS011;39163;52.696;6.758;2024-02-28T08:42:24;55.83;;;27.38;;
53273;SDS011;39163;52.696;6.758;2024-02-28T08:44:51;59.70;;;28.60;;
53273;SDS011;39163;52.696;6.758;2024-02-28T08:47:22;57.22;;;28.05;;
53273;SDS011;39163;52.696;6.758;2024-02-28T08:49:49;61.78;;;27.08;;
53273;SDS011;39163;52.696;6.758;2024-02-28T08:52:17;62.05;;;27.98;;
53273;SDS011;39163;52.696;6.758;2024-02-28T08:54:44;61.55;;;26.77;;
53273;SDS011;39163;52.696;6.758;2024-02-28T08:57:10;59.35;;;27.80;;
53273;SDS011;39163;52.696;6.758;2024-02-28T08:59:39;64.97;;;30.95;;
53273;SDS011;39163;52.696;6.758;2024-02-28T09:02:06;55.70;;;27.23;;
53273;SDS011;39163;52.696;6.758;2024-02-28T09:04:33;62.08;;;28.33;;
53273;SDS011;39163;52.696;6.758;2024-02-28T09:07:00;59.80;;;28.05;;
53273;SDS011;39163;52.696;6.758;2024-02-28T09:09:27;59.95;;;29.85;;
53273;SDS011;39163;52.696;6.758;2024-02-28T09:11:57;59.90;;;30.38;;
53273;SDS011;39163;52.696;6.758;2024-02-28T09:14:24;54.80;;;29.35;;
53273;SDS011;39163;52.696;6.758;2024-02-28T09:16:52;57.63;;;30.02;;
53273;SDS011;39163;52.696;6.758;2024-02-28T09:19:21;59.75;;;31.58;;
53273;SDS011;39163;52.696;6.758;2024-02-28T09:21:48;61.25;;;29.55;;
53273;SDS011;39163;52.696;6.758;2024-02-28T09:24:15;58.97;;;28.60;;
53273;SDS011;39163;52.696;6.758;2024-02-28T09:26:42;57.10;;;29.65;;
53273;SDS011;39163;52.696;6.758;2024-02-28T09:29:09;51.78;;;26.63;;
53273;SDS011;39163;52.696;6.758;2024-02-28T09:31:36;56.28;;;28.08;;
53273;SDS011;39163;52.696;6.758;2024-02-28T09:34:04;53.47;;;27.75;;
53273;SDS011;39163;52.696;6.758;2024-02-28T09:36:39;56.47;;;28.40;;
53273;SDS011;39163;52.696;6.758;2024-02-28T09:39:07;54.75;;;26.52;;
53273;SDS011;39163;52.696;6.758;2024-02-28T09:41:34;53.65;;;28.85;;
53273;SDS011;39163;52.696;6.758;2024-02-28T09:44:02;53.38;;;27.98;;
53273;SDS011;39163;52.696;6.758;2024-02-28T09:46:29;56.15;;;29.33;;
53273;SDS011;39163;52.696;6.758;2024-02-28T09:48:59;48.17;;;27.27;;
53273;SDS011;39163;52.696;6.758;2024-02-28T09:51:31;50.20;;;27.55;;
53273;SDS011;39163;52.696;6.758;2024-02-28T09:54:00;51.60;;;27.95;;
53273;SDS011;39163;52.696;6.758;2024-02-28T09:56:27;51.08;;;28.42;;
53273;SDS011;39163;52.696;6.758;2024-02-28T09:58:54;52.67;;;28.23;;
53273;SDS011;39163;52.696;6.758;2024-02-28T10:01:22;49.28;;;28.05;;
53273;SDS011;39163;52.696;6.758;2024-02-28T10:03:50;50.22;;;28.65;;
53273;SDS011;39163;52.696;6.758;2024-02-28T10:06:18;46.67;;;28.20;;
53273;SDS011;39163;52.696;6.758;2024-02-28T10:08:46;48.42;;;29.13;;
53273;SDS011;39163;52.696;6.758;2024-02-28T10:11:17;49.33;;;28.92;;
53273;SDS011;39163;52.696;6.758;2024-02-28T10:13:46;49.65;;;29.02;;
53273;SDS011;39163;52.696;6.758;2024-02-28T10:16:13;50.60;;;30.08;;
53273;SDS011;39163;52.696;6.758;2024-02-28T10:18:41;45.78;;;28.20;;
53273;SDS011;39163;52.696;6.758;2024-02-28T10:21:08;48.90;;;30.88;;
53273;SDS011;39163;52.696;6.758;2024-02-28T10:23:37;43.65;;;27.73;;
53273;SDS011;39163;52.696;6.758;2024-02-28T10:26:08;45.95;;;29.02;;
53273;SDS011;39163;52.696;6.758;2024-02-28T10:28:36;49.67;;;30.02;;
53273;SDS011;39163;52.696;6.758;2024-02-28T10:31:03;45.78;;;29.52;;
53273;SDS011;39163;52.696;6.758;2024-02-28T10:33:31;49.95;;;32.95;;
53273;SDS011;39163;52.696;6.758;2024-02-28T10:35:58;43.83;;;28.55;;
53273;SDS011;39163;52.696;6.758;2024-02-28T10:38:26;42.40;;;28.13;;
53273;SDS011;39163;52.696;6.758;2024-02-28T10:40:53;45.05;;;28.20;;
53273;SDS011;39163;52.696;6.758;2024-02-28T10:43:22;40.47;;;28.05;;
53273;SDS011;39163;52.696;6.758;2024-02-28T10:45:53;45.65;;;28.90;;
53273;SDS011;39163;52.696;6.758;2024-02-28T10:48:22;40.63;;;28.23;;
53273;SDS011;39163;52.696;6.758;2024-02-28T10:50:50;39.47;;;26.33;;
53273;SDS011;39163;52.696;6.758;2024-02-28T10:53:20;43.25;;;28.15;;
53273;SDS011;39163;52.696;6.758;2024-02-28T10:55:49;48.00;;;30.73;;
53273;SDS011;39163;52.696;6.758;2024-02-28T10:58:22;42.28;;;29.40;;
53273;SDS011;39163;52.696;6.758;2024-02-28T11:00:54;44.42;;;29.50;;
53273;SDS011;39163;52.696;6.758;2024-02-28T11:03:22;41.67;;;28.88;;
53273;SDS011;39163;52.696;6.758;2024-02-28T11:05:49;46.22;;;29.35;;
53273;SDS011;39163;52.696;6.758;2024-02-28T11:08:20;42.85;;;28.77;;
53273;SDS011;39163;52.696;6.758;2024-02-28T11:10:54;40.28;;;26.98;;
53273;SDS011;39163;52.696;6.758;2024-02-28T11:13:23;43.88;;;29.35;;
53273;SDS011;39163;52.696;6.758;2024-02-28T11:15:51;45.58;;;28.35;;
53273;SDS011;39163;52.696;6.758;2024-02-28T11:18:20;45.47;;;29.98;;
53273;SDS011;39163;52.696;6.758;2024-02-28T11:20:47;40.67;;;28.50;;
53273;SDS011;39163;52.696;6.758;2024-02-28T11:23:17;41.72;;;30.02;;
53273;SDS011;39163;52.696;6.758;2024-02-28T11:25:44;40.83;;;29.40;;
53273;SDS011;39163;52.696;6.758;2024-02-28T11:28:11;46.25;;;29.00;;
53273;SDS011;39163;52.696;6.758;2024-02-28T11:30:40;48.35;;;28.55;;
53273;SDS011;39163;52.696;6.758;2024-02-28T11:33:07;40.08;;;28.80;;
53273;SDS011;39163;52.696;6.758;2024-02-28T11:35:34;42.63;;;29.08;;
53273;SDS011;39163;52.696;6.758;2024-02-28T11:38:01;38.60;;;28.20;;
53273;SDS011;39163;52.696;6.758;2024-02-28T11:40:32;40.00;;;27.20;;
53273;SDS011;39163;52.696;6.758;2024-02-28T11:42:59;40.08;;;28.75;;
53273;SDS011;39163;52.696;6.758;2024-02-28T11:45:28;39.95;;;28.50;;
53273;SDS011;39163;52.696;6.758;2024-02-28T11:47:57;39.67;;;28.25;;
53273;SDS011;39163;52.696;6.758;2024-02-28T11:50:24;42.80;;;28.95;;
53273;SDS011;39163;52.696;6.758;2024-02-28T11:52:55;36.15;;;26.52;;
53273;SDS011;39163;52.696;6.758;2024-02-28T11:55:24;38.55;;;28.50;;
53273;SDS011;39163;52.696;6.758;2024-02-28T11:57:51;43.75;;;30.25;;
53273;SDS011;39163;52.696;6.758;2024-02-28T12:00:18;38.95;;;29.27;;
53273;SDS011;39163;52.696;6.758;2024-02-28T12:02:45;42.75;;;27.60;;
53273;SDS011;39163;52.696;6.758;2024-02-28T12:05:14;42.97;;;28.15;;
53273;SDS011;39163;52.696;6.758;2024-02-28T12:07:41;36.70;;;28.25;;
53273;SDS011;39163;52.696;6.758;2024-02-28T12:10:08;35.63;;;28.00;;
53273;SDS011;39163;52.696;6.758;2024-02-28T12:12:36;40.10;;;29.38;;
53273;SDS011;39163;52.696;6.758;2024-02-28T12:15:03;38.42;;;27.80;;
53273;SDS011;39163;52.696;6.758;2024-02-28T12:17:32;40.35;;;28.13;;
53273;SDS011;39163;52.696;6.758;2024-02-28T12:19:59;39.58;;;28.05;;
53273;SDS011;39163;52.696;6.758;2024-02-28T12:22:27;42.17;;;27.45;;
53273;SDS011;39163;52.696;6.758;2024-02-28T12:24:54;37.70;;;28.13;;
53273;SDS011;39163;52.696;6.758;2024-02-28T12:27:21;41.08;;;28.60;;
53273;SDS011;39163;52.696;6.758;2024-02-28T12:29:48;42.65;;;30.55;;
53273;SDS011;39163;52.696;6.758;2024-02-28T12:32:15;41.50;;;27.98;;
53273;SDS011;39163;52.696;6.758;2024-02-28T12:34:43;43.92;;;30.42;;
53273;SDS011;39163;52.696;6.758;2024-02-28T12:37:10;60.80;;;32.33;;
53273;SDS011;39163;52.696;6.758;2024-02-28T12:39:38;45.00;;;30.88;;
53273;SDS011;39163;52.696;6.758;2024-02-28T12:42:05;46.45;;;29.17;;
53273;SDS011;39163;52.696;6.758;2024-02-28T12:44:34;43.85;;;29.48;;
53273;SDS011;39163;52.696;6.758;2024-02-28T12:47:01;44.05;;;29.73;;
53273;SDS011;39163;52.696;6.758;2024-02-28T12:49:28;47.80;;;31.30;;
53273;SDS011;39163;52.696;6.758;2024-02-28T12:51:55;51.20;;;31.73;;
53273;SDS011;39163;52.696;6.758;2024-02-28T12:54:22;46.55;;;32.63;;
53273;SDS011;39163;52.696;6.758;2024-02-28T12:56:50;43.35;;;29.27;;
53273;SDS011;39163;52.696;6.758;2024-02-28T12:59:17;51.13;;;31.05;;
53273;SDS011;39163;52.696;6.758;2024-02-28T13:01:44;47.70;;;29.33;;
53273;SDS011;39163;52.696;6.758;2024-02-28T13:04:12;55.90;;;34.58;;
53273;SDS011;39163;52.696;6.758;2024-02-28T13:06:39;48.60;;;30.08;;
53273;SDS011;39163;52.696;6.758;2024-02-28T13:09:06;44.78;;;29.02;;
53273;SDS011;39163;52.696;6.758;2024-02-28T13:11:37;50.88;;;32.35;;
53273;SDS011;39163;52.696;6.758;2024-02-28T13:14:06;48.50;;;31.80;;
53273;SDS011;39163;52.696;6.758;2024-02-28T13:16:34;60.35;;;36.08;;
53273;SDS011;39163;52.696;6.758;2024-02-28T13:19:01;49.40;;;30.95;;
53273;SDS011;39163;52.696;6.758;2024-02-28T13:21:29;65.75;;;37.75;;
53273;SDS011;39163;52.696;6.758;2024-02-28T13:23:57;63.05;;;36.78;;
53273;SDS011;39163;52.696;6.758;2024-02-28T13:26:24;49.83;;;32.25;;
53273;SDS011;39163;52.696;6.758;2024-02-28T13:28:51;53.22;;;31.40;;
53273;SDS011;39163;52.696;6.758;2024-02-28T13:31:20;57.90;;;33.80;;
53273;SDS011;39163;52.696;6.758;2024-02-28T13:33:47;50.20;;;30.38;;
53273;SDS011;39163;52.696;6.758;2024-02-28T13:36:14;50.53;;;30.67;;
53273;SDS011;39163;52.696;6.758;2024-02-28T13:38:41;45.33;;;28.48;;
53273;SDS011;39163;52.696;6.758;2024-02-28T13:41:09;40.17;;;25.27;;
53273;SDS011;39163;52.696;6.758;2024-02-28T13:43:36;48.33;;;29.20;;
53273;SDS011;39163;52.696;6.758;2024-02-28T13:46:03;48.08;;;29.20;;
53273;SDS011;39163;52.696;6.758;2024-02-28T13:48:31;41.90;;;25.85;;
53273;SDS011;39163;52.696;6.758;2024-02-28T13:50:59;41.72;;;27.48;;
53273;SDS011;39163;52.696;6.758;2024-02-28T13:53:27;42.70;;;26.73;;
53273;SDS011;39163;52.696;6.758;2024-02-28T13:55:54;44.47;;;26.90;;
53273;SDS011;39163;52.696;6.758;2024-02-28T13:58:21;42.75;;;28.98;;
53273;SDS011;39163;52.696;6.758;2024-02-28T14:00:47;49.65;;;28.33;;
53273;SDS011;39163;52.696;6.758;2024-02-28T14:03:15;44.15;;;28.70;;
53273;SDS011;39163;52.696;6.758;2024-02-28T14:05:43;39.38;;;26.88;;
53273;SDS011;39163;52.696;6.758;2024-02-28T14:08:10;41.00;;;27.48;;
53273;SDS011;39163;52.696;6.758;2024-02-28T14:10:37;42.63;;;27.27;;
53273;SDS011;39163;52.696;6.758;2024-02-28T14:13:05;45.13;;;27.27;;
53273;SDS011;39163;52.696;6.758;2024-02-28T14:15:32;39.80;;;26.40;;
53273;SDS011;39163;52.696;6.758;2024-02-28T14:18:01;42.50;;;27.38;;
53273;SDS011;39163;52.696;6.758;2024-02-28T14:20:29;40.45;;;27.77;;
53273;SDS011;39163;52.696;6.758;2024-02-28T14:22:57;40.97;;;26.33;;